EmailTwitter


Surface observations / Quebec / EGMC

Regions: Quebec | Canada | USA | Europe | France | UK | Elsewhere
Station
Display
Info & Location for EGMC | Help decoding METAR

Weather Conditions observed on 2017/09/19 at 13:20 UTC at SOUTHEND-ON-SEA, UK (EGMC)

Sky conditions: partly cloudy.

Temperature: 13.0 Celsius.

Dewpoint: 8.0 Celsius.

Relative Humidity: 72%

Winds: Variable at 6 km/h or 3 knots.

Mean Sea level Pressure: 102.20 kilopascals.

Horizontal visibility: 6.21 statute miles or 9.94 kilometers.

Height of the Ceiling: 671 metres ( 2200 feet ).

Coded METAR:

EGMC 191320Z VRB03KT 9999 BKN022 13/08 Q1022=